createdAt,value
2019-02-02T00:00:31.157Z,7.80
2019-02-02T00:01:31.146Z,5.70
2019-02-02T00:02:31.228Z,10.00
2019-02-02T00:03:31.088Z,6.00
2019-02-02T00:04:31.085Z,7.40
2019-02-02T00:05:31.094Z,5.20
2019-02-02T00:06:31.082Z,8.10
2019-02-02T00:07:31.047Z,9.90
2019-02-02T00:08:31.047Z,7.20
2019-02-02T00:09:31.024Z,6.90
2019-02-02T00:10:31.008Z,4.90
2019-02-02T00:11:31.032Z,6.20
2019-02-02T00:12:30.990Z,11.20
2019-02-02T00:13:30.981Z,3.50
2019-02-02T00:14:31.001Z,5.40
2019-02-02T00:15:30.954Z,6.70
2019-02-02T00:16:30.976Z,5.20
2019-02-02T00:17:30.943Z,8.80
2019-02-02T00:18:30.929Z,6.00
2019-02-02T00:19:30.922Z,8.10
2019-02-02T00:20:30.909Z,5.60
2019-02-02T00:21:30.918Z,7.70
2019-02-02T00:22:30.902Z,5.90
2019-02-02T00:23:30.874Z,8.70
2019-02-02T00:24:30.857Z,7.00
2019-02-02T00:25:30.862Z,5.20
2019-02-02T00:26:30.868Z,5.00
2019-02-02T00:27:40.820Z,6.00
2019-02-02T00:28:31.834Z,4.30
2019-02-02T00:29:30.820Z,7.30
2019-02-02T00:30:30.796Z,8.20
2019-02-02T00:31:30.783Z,6.90
2019-02-02T00:32:30.805Z,5.80
2019-02-02T00:33:30.759Z,11.50
2019-02-02T00:34:30.749Z,7.40
2019-02-02T00:35:30.733Z,6.80
2019-02-02T00:36:30.733Z,6.70
2019-02-02T00:37:30.826Z,5.00
2019-02-02T00:38:30.729Z,8.60
2019-02-02T00:39:30.694Z,10.10
2019-02-02T00:40:30.683Z,7.90
2019-02-02T00:41:30.678Z,8.30
2019-02-02T00:42:30.688Z,6.10
2019-02-02T00:43:30.650Z,5.60
2019-02-02T00:44:30.638Z,7.80
2019-02-02T00:45:30.623Z,8.70
2019-02-02T00:46:30.615Z,8.00
2019-02-02T00:47:30.633Z,11.40
2019-02-02T00:48:30.605Z,10.90
2019-02-02T00:49:30.584Z,7.00
2019-02-02T00:50:30.582Z,6.60
2019-02-02T00:51:30.562Z,7.40
2019-02-02T00:52:30.582Z,6.00
2019-02-02T00:53:30.605Z,8.30
2019-02-02T00:54:30.548Z,8.10
2019-02-02T00:55:30.520Z,7.60
2019-02-02T00:56:30.508Z,6.10
2019-02-02T00:57:30.516Z,9.60
2019-02-02T00:58:30.525Z,7.60
2019-02-02T00:59:30.474Z,5.60
2019-02-02T01:00:30.489Z,4.50
2019-02-02T01:01:30.450Z,6.10
2019-02-02T01:02:30.439Z,6.50
2019-02-02T01:03:30.462Z,7.10
2019-02-02T01:04:30.425Z,9.80
2019-02-02T01:05:30.404Z,10.20
2019-02-02T01:06:30.395Z,7.40
2019-02-02T01:07:30.390Z,8.50
2019-02-02T01:08:30.405Z,7.20
2019-02-02T01:09:30.396Z,6.40
2019-02-02T01:10:30.351Z,8.30
2019-02-02T01:11:30.346Z,8.90
2019-02-02T01:12:30.342Z,5.60
2019-02-02T01:13:30.348Z,8.90
2019-02-02T01:14:30.307Z,10.70
2019-02-02T01:15:30.298Z,6.70
2019-02-02T01:16:30.287Z,10.10
2019-02-02T01:17:30.277Z,8.40
2019-02-02T01:18:30.291Z,9.00
2019-02-02T01:19:30.251Z,8.50
2019-02-02T01:20:30.389Z,11.90
2019-02-02T01:21:30.329Z,7.20
2019-02-02T01:22:30.327Z,7.70
2019-02-02T01:23:30.271Z,6.20
2019-02-02T01:24:30.208Z,6.20
2019-02-02T01:25:30.188Z,9.30
2019-02-02T01:26:30.197Z,6.50
2019-02-02T01:27:30.163Z,7.20
2019-02-02T01:28:30.197Z,7.80
2019-02-02T01:29:30.178Z,8.70
2019-02-02T01:30:30.133Z,6.40
2019-02-02T01:31:30.118Z,5.00
2019-02-02T01:32:30.108Z,7.80
2019-02-02T01:33:30.143Z,7.70
2019-02-02T01:34:30.086Z,9.90
2019-02-02T01:35:30.082Z,7.70
2019-02-02T01:36:30.078Z,6.00
2019-02-02T01:37:30.054Z,6.00
2019-02-02T01:38:30.081Z,12.50
2019-02-02T01:39:30.054Z,6.00
2019-02-02T01:40:30.025Z,11.60
2019-02-02T01:41:30.009Z,7.90
2019-02-02T01:42:30.000Z,9.20
2019-02-02T01:43:29.995Z,10.10
2019-02-02T01:44:30.005Z,6.90
2019-02-02T01:45:29.997Z,7.30
2019-02-02T01:46:29.957Z,11.60
2019-02-02T01:47:29.952Z,9.30
2019-02-02T01:48:29.934Z,5.60
2019-02-02T01:49:29.972Z,6.50
2019-02-02T01:50:29.909Z,6.70
2019-02-02T01:51:29.905Z,10.20
2019-02-02T01:52:29.889Z,8.30
2019-02-02T01:53:29.891Z,10.70
2019-02-02T01:54:29.895Z,8.60
2019-02-02T01:55:29.863Z,9.10
2019-02-02T01:56:29.846Z,7.80
2019-02-02T01:57:29.855Z,9.10
2019-02-02T01:58:29.828Z,7.40
2019-02-02T01:59:29.867Z,8.00
2019-02-02T02:00:29.801Z,7.40
2019-02-02T02:01:29.793Z,11.60
2019-02-02T02:02:29.783Z,4.70
2019-02-02T02:03:29.791Z,11.50
2019-02-02T02:04:29.793Z,6.50
2019-02-02T02:05:29.749Z,7.10
2019-02-02T02:06:29.737Z,8.70
2019-02-02T02:07:29.734Z,4.40
2019-02-02T02:08:29.713Z,4.20
2019-02-02T02:09:29.714Z,4.00
2019-02-02T02:10:29.736Z,6.10
2019-02-02T02:11:29.685Z,4.90
2019-02-02T02:12:29.688Z,6.80
2019-02-02T02:13:29.660Z,6.40
2019-02-02T02:14:29.650Z,11.60
2019-02-02T02:15:29.660Z,8.60
2019-02-02T02:16:29.657Z,10.60
2019-02-02T02:17:29.618Z,5.50
2019-02-02T02:18:29.604Z,8.50
2019-02-02T02:19:29.594Z,6.60
2019-02-02T02:20:29.613Z,5.50
2019-02-02T02:21:29.577Z,9.40
2019-02-02T02:22:40.615Z,6.20
2019-02-02T02:23:30.546Z,8.20
2019-02-02T02:24:29.538Z,9.10
2019-02-02T02:25:29.591Z,8.00
2019-02-02T02:26:29.517Z,15.10
2019-02-02T02:27:29.533Z,10.10
2019-02-02T02:28:29.496Z,8.80
2019-02-02T02:29:29.482Z,7.30
2019-02-02T02:30:29.473Z,4.80
2019-02-02T02:31:29.490Z,6.50
2019-02-02T02:32:29.456Z,6.70
2019-02-02T02:33:29.458Z,9.80
2019-02-02T02:34:29.473Z,10.10
2019-02-02T02:35:29.465Z,8.20
2019-02-02T02:36:29.433Z,10.30
2019-02-02T02:37:29.421Z,14.90
2019-02-02T02:38:29.459Z,7.20
2019-02-02T02:39:29.387Z,8.70
2019-02-02T02:40:29.367Z,9.60
2019-02-02T02:41:29.357Z,8.30
2019-02-02T02:42:29.346Z,8.40
2019-02-02T02:43:29.369Z,8.50
2019-02-02T02:44:29.323Z,8.20
2019-02-02T02:45:29.306Z,10.40
2019-02-02T02:46:29.295Z,8.70
2019-02-02T02:47:29.316Z,8.20
2019-02-02T02:48:29.295Z,8.60
2019-02-02T02:49:29.265Z,8.50
2019-02-02T02:50:29.260Z,8.60
2019-02-02T02:51:29.247Z,10.00
2019-02-02T02:52:29.260Z,8.30
2019-02-02T02:53:29.251Z,12.40
2019-02-02T02:54:29.216Z,7.60
2019-02-02T02:55:29.210Z,5.90
2019-02-02T02:56:29.216Z,7.30
2019-02-02T02:57:29.209Z,12.40
2019-02-02T02:58:40.382Z,6.80
2019-02-02T02:59:30.159Z,5.50
2019-02-02T03:00:29.145Z,10.10
2019-02-02T03:01:29.149Z,12.80
2019-02-02T03:02:29.150Z,7.80
2019-02-02T03:03:29.147Z,4.90
2019-02-02T03:04:29.106Z,6.90
2019-02-02T03:05:29.091Z,8.60
2019-02-02T03:06:29.075Z,9.20
2019-02-02T03:07:29.075Z,11.30
2019-02-02T03:08:29.080Z,10.30
2019-02-02T03:09:29.044Z,11.10
2019-02-02T03:10:29.035Z,7.00
2019-02-02T03:11:29.045Z,5.00
2019-02-02T03:12:29.042Z,10.70
2019-02-02T03:13:29.004Z,9.10
2019-02-02T03:14:28.987Z,4.60
2019-02-02T03:15:28.982Z,6.80
2019-02-02T03:16:28.967Z,6.60
2019-02-02T03:17:28.995Z,10.50
2019-02-02T03:18:28.984Z,14.90
2019-02-02T03:19:28.939Z,14.60
2019-02-02T03:20:28.928Z,11.10
2019-02-02T03:21:28.914Z,10.90
2019-02-02T03:22:28.921Z,7.90
2019-02-02T03:23:29.032Z,10.60
2019-02-02T03:24:28.903Z,10.10
2019-02-02T03:25:28.897Z,8.00
2019-02-02T03:26:28.857Z,10.50
2019-02-02T03:27:28.846Z,7.00
2019-02-02T03:28:28.867Z,8.30
2019-02-02T03:29:28.917Z,10.60
2019-02-02T03:30:28.826Z,11.80
2019-02-02T03:31:28.806Z,11.10
2019-02-02T03:32:28.794Z,18.80
2019-02-02T03:33:28.812Z,7.50
2019-02-02T03:34:28.798Z,9.60
2019-02-02T03:35:28.780Z,9.50
2019-02-02T03:36:28.757Z,7.30
2019-02-02T03:37:28.737Z,7.70
2019-02-02T03:38:28.732Z,9.30
2019-02-02T03:39:28.745Z,6.60
2019-02-02T03:40:28.728Z,10.10
2019-02-02T03:41:28.717Z,10.20
2019-02-02T03:42:28.694Z,5.70
2019-02-02T03:43:28.673Z,7.30
2019-02-02T03:44:28.684Z,4.30
2019-02-02T03:45:28.650Z,6.90
2019-02-02T03:46:28.658Z,8.30
2019-02-02T03:47:28.663Z,8.70
2019-02-02T03:48:28.633Z,8.50
2019-02-02T03:49:28.636Z,6.20
2019-02-02T03:50:28.600Z,6.60
2019-02-02T03:51:28.592Z,6.10
2019-02-02T03:52:28.582Z,6.80
2019-02-02T03:53:28.564Z,9.50
2019-02-02T03:54:28.557Z,7.40
2019-02-02T03:55:28.571Z,5.90
2019-02-02T03:56:28.546Z,7.40
2019-02-02T03:57:28.527Z,8.60
2019-02-02T03:58:28.523Z,9.90
2019-02-02T03:59:28.496Z,7.40
2019-02-02T04:00:28.547Z,11.90
2019-02-02T04:01:30.203Z,10.10
2019-02-02T04:02:28.504Z,10.70
2019-02-02T04:03:28.463Z,9.60
2019-02-02T04:04:28.438Z,7.40
2019-02-02T04:05:28.464Z,9.40
2019-02-02T04:06:28.418Z,9.00
2019-02-02T04:07:28.420Z,9.20
2019-02-02T04:08:28.399Z,6.80
2019-02-02T04:09:28.382Z,5.20
2019-02-02T04:10:28.415Z,10.00
2019-02-02T04:11:28.365Z,10.00
2019-02-02T04:12:28.356Z,9.80
2019-02-02T04:13:28.353Z,7.10
2019-02-02T04:14:28.332Z,6.80
2019-02-02T04:15:28.461Z,4.60
2019-02-02T04:16:28.307Z,7.00
2019-02-02T04:17:28.299Z,5.70
2019-02-02T04:18:28.291Z,7.80
2019-02-02T04:19:28.277Z,6.20
2019-02-02T04:20:28.293Z,10.20
2019-02-02T04:21:28.262Z,7.70
2019-02-02T04:22:28.251Z,4.00
2019-02-02T04:23:28.244Z,8.20
2019-02-02T04:24:28.227Z,5.20
2019-02-02T04:25:28.234Z,11.50
2019-02-02T04:26:28.216Z,5.50
2019-02-02T04:27:28.183Z,8.80
2019-02-02T04:28:28.173Z,9.30
2019-02-02T04:29:28.162Z,5.40
2019-02-02T04:30:28.154Z,4.60
2019-02-02T04:31:28.170Z,7.30
2019-02-02T04:32:28.132Z,7.10
2019-02-02T04:33:28.118Z,4.10
2019-02-02T04:34:28.143Z,6.90
2019-02-02T04:35:28.095Z,6.80
2019-02-02T04:36:28.146Z,7.80
2019-02-02T04:37:28.074Z,8.50
2019-02-02T04:38:28.063Z,9.80
2019-02-02T04:39:28.062Z,5.80
2019-02-02T04:40:28.053Z,8.40
2019-02-02T04:41:28.033Z,7.90
2019-02-02T04:42:28.045Z,10.00
2019-02-02T04:43:28.010Z,9.00
2019-02-02T04:44:28.002Z,8.90
2019-02-02T04:45:27.987Z,9.90
2019-02-02T04:46:28.009Z,7.00
2019-02-02T04:47:27.968Z,9.00
2019-02-02T04:48:27.958Z,10.70
2019-02-02T04:49:27.947Z,5.20
2019-02-02T04:50:28.034Z,7.90
2019-02-02T04:51:27.945Z,5.10
2019-02-02T04:52:27.936Z,6.90
2019-02-02T04:53:27.916Z,7.70
2019-02-02T04:54:27.929Z,4.70
2019-02-02T04:55:27.877Z,14.10
2019-02-02T04:56:27.866Z,7.40
2019-02-02T04:57:27.909Z,7.90
2019-02-02T04:58:27.843Z,7.80
2019-02-02T04:59:29.190Z,10.60
2019-02-02T05:00:27.974Z,8.80
2019-02-02T05:01:27.811Z,6.30
2019-02-02T05:02:30.371Z,7.00
2019-02-02T05:03:27.790Z,7.10
2019-02-02T05:04:27.789Z,7.90
2019-02-02T05:05:27.777Z,9.70
2019-02-02T05:06:27.757Z,12.00
2019-02-02T05:07:27.799Z,7.80
2019-02-02T05:08:27.733Z,6.90
2019-02-02T05:09:27.728Z,10.30
2019-02-02T05:10:27.716Z,5.20
2019-02-02T05:11:27.724Z,4.90
2019-02-02T05:12:27.690Z,8.00
2019-02-02T05:13:27.723Z,3.90
2019-02-02T05:14:27.667Z,7.40
2019-02-02T05:15:27.657Z,9.30
2019-02-02T05:16:27.653Z,6.30
2019-02-02T05:17:27.648Z,8.70
2019-02-02T05:18:27.669Z,5.60
2019-02-02T05:19:27.613Z,7.80
2019-02-02T05:20:27.603Z,7.20
2019-02-02T05:21:27.589Z,9.10
2019-02-02T05:22:27.603Z,17.20
2019-02-02T05:23:27.688Z,5.20
2019-02-02T05:24:27.559Z,6.80
2019-02-02T05:25:27.545Z,12.90
2019-02-02T05:26:27.543Z,18.00
2019-02-02T05:27:27.524Z,6.20
2019-02-02T05:28:27.545Z,8.90
2019-02-02T05:29:27.509Z,6.80
2019-02-02T05:30:27.491Z,11.90
2019-02-02T05:31:27.480Z,8.60
2019-02-02T05:32:27.474Z,10.10
2019-02-02T05:33:27.487Z,5.00
2019-02-02T05:34:27.453Z,6.50
2019-02-02T05:35:27.453Z,10.10
2019-02-02T05:36:27.424Z,11.80
2019-02-02T05:37:27.425Z,7.50
2019-02-02T05:38:27.424Z,14.10
2019-02-02T05:39:27.453Z,11.20
2019-02-02T05:40:27.384Z,7.30
2019-02-02T05:41:27.370Z,8.20
2019-02-02T05:42:27.361Z,5.30
2019-02-02T05:43:27.346Z,5.10
2019-02-02T05:44:27.459Z,7.70
2019-02-02T05:45:27.334Z,6.40
2019-02-02T05:46:27.318Z,6.00
2019-02-02T05:47:27.302Z,8.50
2019-02-02T05:48:27.294Z,5.60
2019-02-02T05:49:27.310Z,9.00
2019-02-02T05:50:27.275Z,10.40
2019-02-02T05:51:27.265Z,8.70
2019-02-02T05:52:27.248Z,12.40
2019-02-02T05:53:27.328Z,8.60
2019-02-02T05:54:27.253Z,7.40
2019-02-02T05:55:27.221Z,8.90
2019-02-02T05:56:27.326Z,12.60
2019-02-02T05:57:27.196Z,5.20
2019-02-02T05:58:27.181Z,7.80
2019-02-02T05:59:27.216Z,7.60
2019-02-02T06:00:27.163Z,7.00
2019-02-02T06:01:29.974Z,8.00
2019-02-02T06:02:27.151Z,7.00
2019-02-02T06:03:27.137Z,8.60
2019-02-02T06:04:27.118Z,9.70
2019-02-02T06:05:27.129Z,5.70
2019-02-02T06:06:27.093Z,10.30
2019-02-02T06:07:27.094Z,7.30
2019-02-02T06:08:27.077Z,7.60
2019-02-02T06:09:27.084Z,8.30
2019-02-02T06:10:27.075Z,6.10
2019-02-02T06:11:27.048Z,12.20
2019-02-02T06:12:27.027Z,9.50
2019-02-02T06:13:27.038Z,12.90
2019-02-02T06:14:27.025Z,7.00
2019-02-02T06:15:28.619Z,7.50
2019-02-02T06:16:26.982Z,6.20
2019-02-02T06:17:26.978Z,10.20
2019-02-02T06:18:26.962Z,8.10
2019-02-02T06:19:26.948Z,4.40
2019-02-02T06:20:27.019Z,8.70
2019-02-02T06:21:26.975Z,8.70
2019-02-02T06:22:26.917Z,11.80
2019-02-02T06:23:26.903Z,10.10
2019-02-02T06:24:26.900Z,7.90
2019-02-02T06:25:26.935Z,6.00
2019-02-02T06:26:26.905Z,7.70
2019-02-02T06:27:26.860Z,8.70
2019-02-02T06:28:26.850Z,10.80
2019-02-02T06:29:26.869Z,7.10
2019-02-02T06:30:26.868Z,9.80
2019-02-02T06:31:26.880Z,10.20
2019-02-02T06:32:26.811Z,7.30
2019-02-02T06:33:26.795Z,9.70
2019-02-02T06:34:26.807Z,8.30
2019-02-02T06:35:26.804Z,6.30
2019-02-02T06:36:26.778Z,6.30
2019-02-02T06:37:26.752Z,9.00
2019-02-02T06:38:26.746Z,8.80
2019-02-02T06:39:26.729Z,9.10
2019-02-02T06:40:26.719Z,9.70
2019-02-02T06:41:26.743Z,10.30
2019-02-02T06:42:26.725Z,10.90
2019-02-02T06:43:26.689Z,6.40
2019-02-02T06:44:26.694Z,7.80
2019-02-02T06:45:26.664Z,10.60
2019-02-02T06:46:26.677Z,6.10
2019-02-02T06:47:26.648Z,8.60
2019-02-02T06:48:26.631Z,11.30
2019-02-02T06:49:26.619Z,7.00
2019-02-02T06:50:26.631Z,6.60
2019-02-02T06:51:26.635Z,7.50
2019-02-02T06:52:26.584Z,8.90
2019-02-02T06:53:26.581Z,8.90
2019-02-02T06:54:26.565Z,7.00
2019-02-02T06:55:26.561Z,12.30
2019-02-02T06:56:26.573Z,8.70
2019-02-02T06:57:26.546Z,12.20
2019-02-02T06:58:26.527Z,7.50
2019-02-02T06:59:26.513Z,13.50
2019-02-02T07:00:26.722Z,10.30
2019-02-02T07:01:26.514Z,8.10
2019-02-02T07:02:26.473Z,9.60
2019-02-02T07:03:26.462Z,8.90
2019-02-02T07:04:26.477Z,6.10
2019-02-02T07:05:26.460Z,6.60
2019-02-02T07:06:26.463Z,11.50
2019-02-02T07:07:26.430Z,9.50
2019-02-02T07:08:26.407Z,10.00
2019-02-02T07:09:26.399Z,6.00
2019-02-02T07:10:26.396Z,12.80
2019-02-02T07:11:26.380Z,9.80
2019-02-02T07:12:26.411Z,15.60
2019-02-02T07:13:26.359Z,10.40
2019-02-02T07:14:26.346Z,15.10
2019-02-02T07:15:26.338Z,6.40
2019-02-02T07:16:26.342Z,11.40
2019-02-02T07:17:26.340Z,9.20
2019-02-02T07:18:26.298Z,9.40
2019-02-02T07:19:29.029Z,9.80
2019-02-02T07:20:26.306Z,9.60
2019-02-02T07:21:26.275Z,9.10
2019-02-02T07:22:26.293Z,10.20
2019-02-02T07:23:26.244Z,9.20
2019-02-02T07:24:26.357Z,12.00
2019-02-02T07:25:26.222Z,9.20
2019-02-02T07:26:26.211Z,13.00
2019-02-02T07:27:26.252Z,10.60
2019-02-02T07:28:26.191Z,9.40
2019-02-02T07:29:26.221Z,11.50
2019-02-02T07:30:28.996Z,8.50
2019-02-02T07:31:26.158Z,14.30
2019-02-02T07:32:26.166Z,8.50
2019-02-02T07:33:26.145Z,10.00
2019-02-02T07:34:26.175Z,8.90
2019-02-02T07:35:26.114Z,13.40
2019-02-02T07:36:26.106Z,8.70
2019-02-02T07:37:26.116Z,8.50
2019-02-02T07:38:26.077Z,10.50
2019-02-02T07:39:26.068Z,8.70
2019-02-02T07:40:26.065Z,11.40
2019-02-02T07:41:26.046Z,15.50
2019-02-02T07:42:26.060Z,7.50
2019-02-02T07:43:26.055Z,6.60
2019-02-02T07:44:26.015Z,12.90
2019-02-02T07:45:26.005Z,11.10
2019-02-02T07:46:26.012Z,6.30
2019-02-02T07:47:26.021Z,6.60
2019-02-02T07:48:25.981Z,12.20
2019-02-02T07:49:25.980Z,12.30
2019-02-02T07:50:25.949Z,7.50
2019-02-02T07:51:25.935Z,10.70
2019-02-02T07:52:25.923Z,11.00
2019-02-02T07:53:25.962Z,10.20
2019-02-02T07:54:25.933Z,9.30
2019-02-02T07:55:25.888Z,7.70
2019-02-02T07:56:25.897Z,14.00
2019-02-02T07:57:25.872Z,11.20
2019-02-02T07:58:25.889Z,14.50
2019-02-02T07:59:25.904Z,12.90
2019-02-02T08:00:25.839Z,11.30
2019-02-02T08:01:25.857Z,12.30
2019-02-02T08:02:25.828Z,5.60
2019-02-02T08:03:25.814Z,6.70
2019-02-02T08:04:25.793Z,12.70
2019-02-02T08:05:25.812Z,11.80
2019-02-02T08:06:25.769Z,12.10
2019-02-02T08:07:25.765Z,10.40
2019-02-02T08:08:25.780Z,13.50
2019-02-02T08:09:25.747Z,14.50
2019-02-02T08:10:25.725Z,16.80
2019-02-02T08:11:25.731Z,12.90
2019-02-02T08:12:25.705Z,6.60
2019-02-02T08:13:25.729Z,11.50
2019-02-02T08:14:25.687Z,12.60
2019-02-02T08:15:25.698Z,10.90
2019-02-02T08:16:25.662Z,12.90
2019-02-02T08:17:25.646Z,12.60
2019-02-02T08:18:25.643Z,9.40
2019-02-02T08:19:25.902Z,13.30
2019-02-02T08:20:25.632Z,11.80
2019-02-02T08:21:25.613Z,11.60
2019-02-02T08:22:25.594Z,11.40
2019-02-02T08:23:25.640Z,12.90
2019-02-02T08:24:25.578Z,10.00
2019-02-02T08:25:25.590Z,13.50
2019-02-02T08:26:25.555Z,12.90
2019-02-02T08:27:25.542Z,10.80
2019-02-02T08:28:25.530Z,12.60
2019-02-02T08:29:25.557Z,7.90
2019-02-02T08:30:25.629Z,11.80
2019-02-02T08:31:25.509Z,17.20
2019-02-02T08:32:25.506Z,11.40
2019-02-02T08:33:25.476Z,14.80
2019-02-02T08:34:25.542Z,14.60
2019-02-02T08:35:25.451Z,15.10
2019-02-02T08:36:25.539Z,12.80
2019-02-02T08:37:25.428Z,10.20
2019-02-02T08:38:25.428Z,14.70
2019-02-02T08:39:29.195Z,10.90
2019-02-02T08:40:25.418Z,12.60
2019-02-02T08:41:25.416Z,15.10
2019-02-02T08:42:25.423Z,16.10
2019-02-02T08:43:25.425Z,15.50
2019-02-02T08:44:25.386Z,8.50
2019-02-02T08:45:25.383Z,13.40
2019-02-02T08:46:25.357Z,14.10
2019-02-02T08:47:25.325Z,10.40
2019-02-02T08:48:25.306Z,19.10
2019-02-02T08:49:25.296Z,14.50
2019-02-02T08:50:25.307Z,15.00
2019-02-02T08:52:26.532Z,12.60
2019-02-02T08:53:25.257Z,10.20
2019-02-02T08:54:25.245Z,11.60
2019-02-02T08:55:25.256Z,11.90
2019-02-02T08:56:25.299Z,12.70
2019-02-02T08:57:25.291Z,15.40
2019-02-02T08:58:25.269Z,11.40
2019-02-02T08:59:25.185Z,13.10
2019-02-02T09:00:25.248Z,15.30
2019-02-02T09:01:25.184Z,10.80
2019-02-02T09:02:25.149Z,11.40
2019-02-02T09:03:25.147Z,18.50
2019-02-02T09:04:25.161Z,11.50
2019-02-02T09:05:25.165Z,19.90
2019-02-02T09:06:25.134Z,9.60
2019-02-02T09:07:25.105Z,11.20
2019-02-02T09:08:25.092Z,12.00
2019-02-02T09:09:25.083Z,20.20
2019-02-02T09:10:25.062Z,13.50
2019-02-02T09:11:25.079Z,11.50
2019-02-02T09:12:25.048Z,14.50
2019-02-02T09:13:25.034Z,17.00
2019-02-02T09:14:25.019Z,17.30
2019-02-02T09:15:25.025Z,14.80
2019-02-02T09:16:25.022Z,16.80
2019-02-02T09:17:24.987Z,14.50
2019-02-02T09:18:24.989Z,16.70
2019-02-02T09:19:24.994Z,15.10
2019-02-02T09:20:24.959Z,16.80
2019-02-02T09:21:24.982Z,13.50
2019-02-02T09:22:24.941Z,17.10
2019-02-02T09:23:24.932Z,14.70
2019-02-02T09:24:24.908Z,14.20
2019-02-02T09:25:24.903Z,11.90
2019-02-02T09:26:24.921Z,19.80
2019-02-02T09:27:24.911Z,20.70
2019-02-02T09:28:24.866Z,13.80
2019-02-02T09:29:24.857Z,19.40
2019-02-02T09:30:24.860Z,17.70
2019-02-02T09:31:24.867Z,11.80
2019-02-02T09:32:24.823Z,16.70
2019-02-02T09:33:24.811Z,12.80
2019-02-02T09:34:24.800Z,13.50
2019-02-02T09:35:24.788Z,14.50
2019-02-02T09:36:24.780Z,14.60
2019-02-02T09:37:24.888Z,16.70
2019-02-02T09:38:24.752Z,16.50
2019-02-02T09:39:24.746Z,11.80
2019-02-02T09:40:25.618Z,13.70
2019-02-02T09:41:24.744Z,15.90
2019-02-02T09:42:24.741Z,16.20
2019-02-02T09:43:24.739Z,14.80
2019-02-02T09:44:24.692Z,13.90
2019-02-02T09:45:24.676Z,14.30
2019-02-02T09:46:24.668Z,18.20
2019-02-02T09:47:24.785Z,18.50
2019-02-02T09:48:24.641Z,15.70
2019-02-02T09:49:24.645Z,18.30
2019-02-02T09:50:24.634Z,13.80
2019-02-02T09:51:24.616Z,13.70
2019-02-02T09:52:24.628Z,18.20
2019-02-02T09:53:24.588Z,14.70
2019-02-02T09:54:26.585Z,12.70
2019-02-02T09:55:24.574Z,16.50
2019-02-02T09:56:24.559Z,11.70
2019-02-02T09:57:27.752Z,9.90
2019-02-02T09:58:24.571Z,13.70
2019-02-02T09:59:24.528Z,11.50
2019-02-02T10:00:24.521Z,7.70
2019-02-02T10:01:27.828Z,15.60
2019-02-02T10:02:26.982Z,16.60
2019-02-02T10:03:24.502Z,17.40
2019-02-02T10:04:24.467Z,13.40
2019-02-02T10:05:24.459Z,17.00
2019-02-02T10:06:24.458Z,16.40
2019-02-02T10:07:24.495Z,13.40
2019-02-02T10:08:24.445Z,19.10
2019-02-02T10:09:24.457Z,17.30
2019-02-02T10:10:24.408Z,14.20
2019-02-02T10:11:24.397Z,13.20
2019-02-02T10:12:24.385Z,15.70
2019-02-02T10:13:24.401Z,15.00
2019-02-02T10:14:24.357Z,14.40
2019-02-02T10:15:24.351Z,16.30
2019-02-02T10:16:24.356Z,16.90
2019-02-02T10:17:24.348Z,15.20
2019-02-02T10:18:24.350Z,16.60
2019-02-02T10:19:24.305Z,16.80
2019-02-02T10:20:24.291Z,11.70
2019-02-02T10:21:24.282Z,19.20
2019-02-02T10:22:24.269Z,14.40
2019-02-02T10:23:24.289Z,15.00
2019-02-02T10:24:24.249Z,13.40
2019-02-02T10:25:24.236Z,13.00
2019-02-02T10:26:24.247Z,13.60
2019-02-02T10:27:24.220Z,13.70
2019-02-02T10:28:24.272Z,16.20
2019-02-02T10:29:24.201Z,13.40
2019-02-02T10:30:24.198Z,14.50
2019-02-02T10:31:24.170Z,13.80
2019-02-02T10:32:24.163Z,13.20
2019-02-02T10:33:24.148Z,17.90
2019-02-02T10:34:24.170Z,15.40
2019-02-02T10:35:24.129Z,22.00
2019-02-02T10:36:24.117Z,16.90
2019-02-02T10:37:24.107Z,18.80
2019-02-02T10:38:24.098Z,17.00
2019-02-02T10:39:24.111Z,15.00
2019-02-02T10:40:24.082Z,13.60
2019-02-02T10:41:24.069Z,12.60
2019-02-02T10:42:24.053Z,18.50
2019-02-02T10:43:24.049Z,12.80
2019-02-02T10:44:24.047Z,17.30
2019-02-02T10:45:24.048Z,14.20
2019-02-02T10:46:24.033Z,15.20
2019-02-02T10:47:24.071Z,18.00
2019-02-02T10:48:23.987Z,19.20
2019-02-02T10:49:24.157Z,16.90
2019-02-02T10:50:23.981Z,19.10
2019-02-02T10:51:25.499Z,15.80
2019-02-02T10:52:23.945Z,15.10
2019-02-02T10:53:23.947Z,19.50
2019-02-02T10:54:23.953Z,18.30
2019-02-02T10:55:23.922Z,16.80
2019-02-02T10:56:23.896Z,25.50
2019-02-02T10:57:23.889Z,18.70
2019-02-02T10:58:23.874Z,15.80
2019-02-02T10:59:23.870Z,16.50
2019-02-02T11:00:23.947Z,13.10
2019-02-02T11:01:23.845Z,21.80
2019-02-02T11:02:23.830Z,13.70
2019-02-02T11:03:23.824Z,19.90
2019-02-02T11:04:23.848Z,15.10
2019-02-02T11:05:23.939Z,23.80
2019-02-02T11:06:23.851Z,18.40
2019-02-02T11:07:23.848Z,13.80
2019-02-02T11:08:23.913Z,15.00
2019-02-02T11:09:23.820Z,15.70
2019-02-02T11:10:23.875Z,20.70
2019-02-02T11:11:23.860Z,23.30
2019-02-02T11:12:23.856Z,18.50
2019-02-02T11:13:23.753Z,16.80
2019-02-02T11:14:23.718Z,18.00
2019-02-02T11:15:23.775Z,29.80
2019-02-02T11:16:23.751Z,15.50
2019-02-02T11:17:23.717Z,21.80
2019-02-02T11:18:23.712Z,18.90
2019-02-02T11:19:23.723Z,17.50
2019-02-02T11:20:23.673Z,14.00
2019-02-02T11:21:23.683Z,20.80
2019-02-02T11:22:23.620Z,17.90
2019-02-02T11:23:23.746Z,18.60
2019-02-02T11:24:23.595Z,14.00
2019-02-02T11:25:23.648Z,20.70
2019-02-02T11:26:23.698Z,14.30
2019-02-02T11:27:23.592Z,15.90
2019-02-02T11:28:23.812Z,21.40
2019-02-02T11:29:23.562Z,21.70
2019-02-02T11:30:23.573Z,16.00
2019-02-02T11:31:23.512Z,13.00
2019-02-02T11:32:23.507Z,15.90
2019-02-02T11:33:23.496Z,24.90
2019-02-02T11:34:23.480Z,16.20
2019-02-02T11:35:23.467Z,17.70
2019-02-02T11:36:23.499Z,20.10
2019-02-02T11:37:23.446Z,13.80
2019-02-02T11:38:23.571Z,18.70
2019-02-02T11:39:23.424Z,14.70
2019-02-02T11:40:23.417Z,12.90
2019-02-02T11:41:23.433Z,21.30
2019-02-02T11:42:23.400Z,17.00
2019-02-02T11:43:23.383Z,16.10
2019-02-02T11:44:23.381Z,19.40
2019-02-02T11:45:23.357Z,15.70
2019-02-02T11:46:23.370Z,19.00
2019-02-02T11:47:23.337Z,19.60
2019-02-02T11:48:23.345Z,16.10
2019-02-02T11:49:24.043Z,14.50
2019-02-02T11:50:23.323Z,15.90
2019-02-02T11:51:23.325Z,21.30
2019-02-02T11:52:23.494Z,21.40
2019-02-02T11:53:23.274Z,21.70
2019-02-02T11:54:23.261Z,19.70
2019-02-02T11:55:23.259Z,17.40
2019-02-02T11:56:23.241Z,11.00
2019-02-02T11:57:23.253Z,18.30
2019-02-02T11:58:23.222Z,19.10
2019-02-02T11:59:23.206Z,14.70
2019-02-02T12:00:23.211Z,18.00
2019-02-02T12:01:23.190Z,17.20
2019-02-02T12:02:23.252Z,17.50
2019-02-02T12:03:23.166Z,13.80
2019-02-02T12:04:23.164Z,21.30
2019-02-02T12:05:23.158Z,16.20
2019-02-02T12:06:23.139Z,17.80
2019-02-02T12:07:23.147Z,18.20
2019-02-02T12:08:23.105Z,14.70
2019-02-02T12:09:23.096Z,13.80
2019-02-02T12:10:23.110Z,21.60
2019-02-02T12:11:23.074Z,17.30
2019-02-02T12:12:23.089Z,24.00
2019-02-02T12:13:23.070Z,22.70
2019-02-02T12:14:23.048Z,20.20
2019-02-02T12:15:23.030Z,11.40
2019-02-02T12:16:23.023Z,18.40
2019-02-02T12:17:23.037Z,23.00
2019-02-02T12:18:23.160Z,16.90
2019-02-02T12:19:22.984Z,16.70
2019-02-02T12:20:22.980Z,14.20
2019-02-02T12:21:22.993Z,13.70
2019-02-02T12:22:22.954Z,16.00
2019-02-02T12:23:22.974Z,14.10
2019-02-02T12:24:22.932Z,15.70
2019-02-02T12:25:22.935Z,15.30
2019-02-02T12:26:22.945Z,24.40
2019-02-02T12:27:22.902Z,15.00
2019-02-02T12:28:22.915Z,16.60
2019-02-02T12:29:22.878Z,19.20
2019-02-02T12:30:22.865Z,20.40
2019-02-02T12:31:22.852Z,18.50
2019-02-02T12:32:26.724Z,16.40
2019-02-02T12:33:25.764Z,22.20
2019-02-02T12:34:22.820Z,13.60
2019-02-02T12:35:22.827Z,16.70
2019-02-02T12:36:22.831Z,14.90
2019-02-02T12:37:22.785Z,10.00
2019-02-02T12:38:22.815Z,19.60
2019-02-02T12:39:22.765Z,13.30
2019-02-02T12:40:22.767Z,15.30
2019-02-02T12:41:22.742Z,16.50
2019-02-02T12:42:22.741Z,13.80
2019-02-02T12:43:22.761Z,19.00
2019-02-02T12:44:22.732Z,19.80
2019-02-02T12:45:22.712Z,17.20
2019-02-02T12:46:22.700Z,17.30
2019-02-02T12:47:22.692Z,13.30
2019-02-02T12:48:22.707Z,17.90
2019-02-02T12:49:22.706Z,14.20
2019-02-02T12:50:22.654Z,18.10
2019-02-02T12:51:22.635Z,17.40
2019-02-02T12:52:25.366Z,20.70
2019-02-02T12:53:22.645Z,20.60
2019-02-02T12:54:22.627Z,14.20
2019-02-02T12:55:22.587Z,14.20
2019-02-02T12:56:22.581Z,17.10
2019-02-02T12:57:22.568Z,17.70
2019-02-02T12:58:22.573Z,17.50
2019-02-02T12:59:22.573Z,14.00
2019-02-02T13:00:22.536Z,18.50
2019-02-02T13:01:22.536Z,14.40
2019-02-02T13:02:25.381Z,18.70
2019-02-02T13:03:22.512Z,12.40
2019-02-02T13:04:22.518Z,18.30
2019-02-02T13:05:22.487Z,21.20